Черновцы

Карта отелей и гостиниц, располагающихся рядом с аэропортом Черновцы :

Черновцы Черновицкая область 48° 15' 34.2" N, 25° 58' 48.1188" E
Код аэродрома ИКАО
UKLN
Код аэродрома RU
УКЛН
Координаты
N48.25950° E025.98003°
Превышение над уровнем моря
253
Основная полоса
15/33
Курс магнитный
147,6/327,6
Длина основной ВПП
2220
Ширина основной ВПП
42
Покрытие основной ВПП
Твёрдое (асфальтобетон)
Освещение ВПП
Постоянное
Тип: 
Аэродром
Принадлежность: 
ГА
Статус: 
Действующий
Сайт: 
www.airport.cv.ua
Страна: 
Украина
Регион: 
Черновицкая область
Дополнительная информация: 
Имеет смещенный порог ИВПП-33 на 320 м в сторону КТА. Ранее базировались самолеты Ан-30 (аэрофотосъемщики).
Погода: 

Авиационная погода в Черновцах

Регион: 
Погода METAR: 
UKLN 281430Z 08001MPS CAVOK 09/04 Q0997 NOSIG
Время наблюдения
2021-11-28T14:30:00Z
Температура C
9.0
Точка росы
4.0
Направление ветра
80
Скорость ветра (узлы)
2
Метео видимость
6.21
Явления погоды
Условия полета
VFR
Аэропорт подробнее: 

Найти трансфер

С помощью этой формы Вы можете найти трансфер из аэропорта Черновцы в город, аэропорт или вокзал:

Карта места

Javascript is required to view this map.

Погода в аэропортах:

Авиационная погода в Нижнекамске

Регион: 
Погода METAR: 
UWKE 281300Z 23006G11MPS 5000 -SN BLSN BKN009 OVC026 M03/M04 Q1014 R21/450545 NOSIG RMK QFE744/0992
Время наблюдения
2021-11-28T13:00:00Z
Температура C
-3.0
Точка росы
-4.0
Направление ветра
230
Скорость ветра (узлы)
12
Метео видимость
3.11
Явления погоды
-SN BLSN
Условия полета
IFR
Аэропорт подробнее: 

Авиационная погода в Москва - Внуково

Погода METAR: 
UUWW 281300Z 22006MPS 9999 -RA BKN007 OVC022 02/01 Q1005 R24/290050 TEMPO BKN004
Время наблюдения
2021-11-28T13:00:00Z
Температура C
2.0
Точка росы
1.0
Направление ветра
220
Скорость ветра (узлы)
12
Метео видимость
6.21
Явления погоды
-RA
Условия полета
IFR
Аэропорт подробнее: 

Авиационная погода в Ивало

Регион: 
Погода METAR: 
EFIV 281320Z AUTO 00000KT 9999 -SHSN OVC030 M22/M25 Q1009
Время наблюдения
2021-11-28T13:20:00Z
Температура C
-22.0
Точка росы
-25.0
Направление ветра
0
Скорость ветра (узлы)
0
Метео видимость
6.21
Явления погоды
-SHSN
Условия полета
MVFR

Авиационная погода в Череповце

Регион: 
Погода METAR: 
ULWC 281300Z 25005G10MPS 9999 -SHSNRA BKN006 OVC013CB 01/M00 Q0998 R21/690239 NOSIG RMK QFE738/0985
Время наблюдения
2021-11-28T13:00:00Z
Температура C
1.0
Точка росы
0.0
Направление ветра
250
Скорость ветра (узлы)
10
Метео видимость
6.21
Явления погоды
-SHSN -SHRA
Условия полета
IFR
Аэропорт подробнее: